Time;durP1;ratioP1;P1;durP2;ratioP2;P2;SDS_P1;SDS_P2;PMS_P1;PMS_P2;Temp;Humidity;BMP_temperature;BMP_pressure;BME280_temperature;BME280_humidity;BME280_pressure;Samples;Min_cycle;Max_cycle;Signal;HPM_P1;HPM_P2
2021/01/08 00:02:08;;;;;;;1.77;1.60;;;;;;;2.52;98.77;101243.22;4930299;28;20461;-77
2021/01/08 00:04:33;;;;;;;2.50;1.50;;;;;;;2.66;98.60;101272.22;4939831;28;20325;-77
2021/01/08 00:06:59;;;;;;;1.30;1.20;;;;;;;2.69;98.12;101273.84;4959328;28;20118;-77
2021/01/08 00:09:24;;;;;;;1.60;1.27;;;;;;;2.56;98.34;101256.16;4943045;28;20134;-77
2021/01/08 00:11:54;;;;;;;1.95;1.30;;;;;;;2.49;98.03;101252.16;4910735;29;20130;-77
2021/01/08 00:14:20;;;;;;;1.55;1.30;;;;;;;2.65;97.88;101280.25;4953794;28;20684;-77
2021/01/08 00:16:45;;;;;;;2.83;1.58;;;;;;;2.63;98.46;101275.06;4963360;28;20350;-77
2021/01/08 00:19:13;;;;;;;3.80;1.58;;;;;;;2.62;98.67;101275.16;4943326;28;20110;-77
2021/01/08 00:21:45;;;;;;;2.58;1.63;;;;;;;2.53;98.45;101271.25;4933955;28;20474;-78
2021/01/08 00:24:11;;;;;;;3.33;1.70;;;;;;;2.60;98.50;101270.81;4960666;28;20348;-78
2021/01/08 00:26:37;;;;;;;2.40;2.05;;;;;;;2.60;98.49;101278.72;4904824;28;20030;-78
2021/01/08 00:29:03;;;;;;;2.75;1.88;;;;;;;2.61;98.68;101271.69;4935949;28;20059;-74
2021/01/08 00:31:55;;;;;;;3.33;2.42;;;;;;;2.60;98.51;101268.19;4932760;28;20473;-77
2021/01/08 00:34:21;;;;;;;3.63;2.72;;;;;;;1.73;98.38;101127.53;4940153;28;20063;-77
2021/01/08 00:36:51;;;;;;;5.13;2.70;;;;;;;2.60;98.34;101273.44;4949398;28;20031;-78
2021/01/08 00:39:17;;;;;;;4.82;2.53;;;;;;;2.59;98.33;101278.81;4940447;28;20066;-77
2021/01/08 00:41:42;;;;;;;6.03;2.65;;;;;;;2.58;98.88;101277.94;4947344;28;20035;-77
2021/01/08 00:44:08;;;;;;;7.03;3.20;;;;;;;2.57;99.09;101276.28;4944657;28;20059;-77
2021/01/08 00:46:38;;;;;;;4.60;3.17;;;;;;;2.47;98.93;101251.41;4949829;28;20050;-77
2021/01/08 00:49:04;;;;;;;4.75;2.95;;;;;;;2.62;98.63;101272.50;4942150;28;20027;-77
2021/01/08 00:51:29;;;;;;;5.55;3.40;;;;;;;2.68;98.62;101274.78;4915666;29;20032;-78
2021/01/08 00:53:55;;;;;;;4.53;2.90;;;;;;;2.68;98.38;101273.00;4943135;28;20106;-77
2021/01/08 00:56:21;;;;;;;5.65;3.47;;;;;;;2.39;98.55;101224.66;4944094;28;20055;-77
2021/01/08 00:58:46;;;;;;;6.85;3.17;;;;;;;2.66;98.34;101268.75;4942422;28;20047;-77
2021/01/08 01:01:13;;;;;;;5.18;3.20;;;;;;;2.67;98.55;101262.56;4951327;28;20034;-78
2021/01/08 01:03:38;;;;;;;6.15;3.28;;;;;;;2.66;98.42;101269.59;4946361;28;20039;-78
2021/01/08 01:06:04;;;;;;;6.43;3.53;;;;;;;2.66;98.30;101264.31;4950150;28;20122;-78
2021/01/08 01:08:29;;;;;;;7.88;3.85;;;;;;;2.22;98.36;101197.53;4945896;28;20455;-74
2021/01/08 01:10:55;;;;;;;4.45;3.22;;;;;;;2.67;98.26;101271.28;4948428;28;20553;-77
2021/01/08 01:13:20;;;;;;;8.32;3.42;;;;;;;2.65;98.42;101269.69;4944093;28;22483;-78
2021/01/08 01:15:46;;;;;;;4.95;3.20;;;;;;;2.62;98.52;101268.09;4939691;28;20110;-78
2021/01/08 01:18:11;;;;;;;4.45;3.03;;;;;;;2.62;99.02;101270.75;4946079;28;20408;-78
2021/01/08 01:20:37;;;;;;;4.90;2.97;;;;;;;2.62;99.26;101269.88;4962576;28;20127;-78
2021/01/08 01:23:03;;;;;;;5.72;2.80;;;;;;;2.50;98.79;101250.38;4965708;28;20067;-78
2021/01/08 01:25:28;;;;;;;5.43;2.17;;;;;;;2.67;98.81;101273.09;4925807;28;20034;-75
2021/01/08 01:27:54;;;;;;;4.00;2.00;;;;;;;2.43;98.60;101240.19;4922932;29;20027;-74
2021/01/08 01:30:19;;;;;;;3.95;2.13;;;;;;;2.65;98.80;101274.97;4923477;29;20114;-77
2021/01/08 01:32:45;;;;;;;5.38;2.00;;;;;;;2.48;98.81;101249.63;4944509;28;20649;-77
2021/01/08 01:35:11;;;;;;;4.35;1.88;;;;;;;2.68;98.90;101278.25;4949623;28;20484;-78
2021/01/08 01:37:36;;;;;;;2.40;1.40;;;;;;;2.66;98.91;101280.13;4943958;28;20063;-77
2021/01/08 01:40:02;;;;;;;4.82;1.70;;;;;;;2.52;98.59;101259.88;4939439;28;20126;-74
2021/01/08 01:42:27;;;;;;;4.28;1.70;;;;;;;2.69;99.09;101287.88;4960179;28;20070;-78
2021/01/08 01:44:53;;;;;;;2.10;1.50;;;;;;;2.70;98.89;101288.72;4937307;28;20858;-77
2021/01/08 01:47:18;;;;;;;6.03;1.40;;;;;;;2.47;98.78;101253.19;4951085;28;20122;-77
2021/01/08 01:49:44;;;;;;;4.20;1.75;;;;;;;2.72;99.13;101287.69;4954852;28;20046;-78
2021/01/08 01:52:09;;;;;;;4.15;1.63;;;;;;;2.72;98.81;101287.69;4953479;28;20110;-77
2021/01/08 01:54:35;;;;;;;4.30;1.63;;;;;;;2.73;98.80;101296.44;4953039;28;20471;-78
2021/01/08 01:57:00;;;;;;;6.55;1.60;;;;;;;2.58;98.82;101275.31;4946634;28;20683;-78
2021/01/08 01:59:26;;;;;;;1.60;1.35;;;;;;;2.74;98.67;101300.78;4948123;28;20175;-78
2021/01/08 02:01:51;;;;;;;3.15;1.38;;;;;;;2.70;98.34;101307.19;4954239;28;20119;-77
2021/01/08 02:04:17;;;;;;;3.80;1.65;;;;;;;2.59;98.66;101271.75;4933971;28;20126;-78
2021/01/08 02:06:42;;;;;;;4.10;1.58;;;;;;;2.74;98.21;101303.41;4953690;28;20065;-77
2021/01/08 02:09:09;;;;;;;3.10;1.70;;;;;;;2.58;98.57;101282.38;4947555;28;20122;-77
2021/01/08 02:11:35;;;;;;;6.10;1.83;;;;;;;2.78;98.61;101306.72;4917690;29;20106;-74
2021/01/08 02:14:08;;;;;;;6.90;1.98;;;;;;;2.77;98.29;101307.66;4926405;28;20587;-78
2021/01/08 02:16:34;;;;;;;4.43;2.10;;;;;;;2.65;98.49;101291.63;4948298;28;20023;-77
2021/01/08 02:18:59;;;;;;;3.58;1.77;;;;;;;2.58;98.44;101277.94;4945496;28;20019;-74
2021/01/08 02:21:53;;;;;;;5.22;2.00;;;;;;;2.77;98.32;101313.78;4943950;28;20138;-78
2021/01/08 02:24:20;;;;;;;6.10;2.10;;;;;;;2.45;98.63;101262.03;4949444;28;20043;-78
2021/01/08 02:26:45;;;;;;;3.40;1.88;;;;;;;2.68;98.48;101307.25;4947504;28;20058;-78
2021/01/08 02:29:11;;;;;;;3.95;1.80;;;;;;;2.68;98.49;101304.63;4924456;28;20031;-78
2021/01/08 02:31:37;;;;;;;2.80;1.98;;;;;;;2.75;98.74;101320.91;4941530;28;20111;-78
2021/01/08 02:34:02;;;;;;;2.42;1.92;;;;;;;2.68;98.51;101306.41;4944147;28;20534;-78
2021/01/08 02:36:28;;;;;;;3.63;2.40;;;;;;;2.69;98.93;101322.13;4913181;28;20158;-78
2021/01/08 02:38:53;;;;;;;4.20;2.20;;;;;;;2.70;98.98;101315.91;4947793;28;20098;-78
2021/01/08 02:41:19;;;;;;;6.88;2.20;;;;;;;2.71;98.88;101315.00;4941699;28;20047;-78
2021/01/08 02:43:45;;;;;;;3.47;2.35;;;;;;;2.69;98.81;101319.50;4944611;28;20367;-78
2021/01/08 02:46:11;;;;;;;5.00;2.40;;;;;;;2.45;99.05;101283.13;4944278;28;20494;-78
2021/01/08 02:48:37;;;;;;;4.40;2.50;;;;;;;2.11;99.04;101224.47;4946485;28;20122;-78
2021/01/08 02:51:02;;;;;;;3.25;2.53;;;;;;;2.70;99.20;101321.19;4950080;28;20031;-74
2021/01/08 02:53:28;;;;;;;4.55;2.17;;;;;;;2.72;98.96;101318.47;4941381;28;20062;-78
2021/01/08 02:56:04;;;;;;;5.10;2.70;;;;;;;2.49;98.96;101280.31;4945321;28;20110;-78
2021/01/08 02:58:30;;;;;;;2.88;2.20;;;;;;;2.66;98.76;101313.56;4946695;28;20038;-78
2021/01/08 03:00:55;;;;;;;7.15;2.58;;;;;;;2.73;99.70;101326.28;4951892;28;20118;-78
2021/01/08 03:03:26;;;;;;;4.80;2.65;;;;;;;2.47;99.25;101282.19;4942363;28;20406;-78
2021/01/08 03:05:52;;;;;;;5.53;2.50;;;;;;;2.74;99.00;101321.84;4934146;29;20182;-78
2021/01/08 03:08:17;;;;;;;6.63;3.00;;;;;;;2.60;99.08;101294.53;4948167;28;20126;-78
2021/01/08 03:10:43;;;;;;;5.65;2.90;;;;;;;2.41;99.15;101270.22;4920625;28;20043;-79
2021/01/08 03:13:08;;;;;;;5.95;3.58;;;;;;;2.69;99.45;101311.59;4945801;28;20091;-78
2021/01/08 03:15:34;;;;;;;4.95;3.08;;;;;;;2.73;99.70;101325.44;4950061;29;20118;-78
2021/01/08 03:17:59;;;;;;;3.30;2.70;;;;;;;2.72;99.61;101324.59;4942341;28;20143;-78
2021/01/08 03:20:25;;;;;;;6.97;3.17;;;;;;;2.72;99.86;101326.38;4960433;28;20193;-79
2021/01/08 03:22:50;;;;;;;5.90;3.60;;;;;;;2.18;99.52;101240.78;4928825;29;20123;-79
2021/01/08 03:25:16;;;;;;;4.90;3.60;;;;;;;2.65;99.28;101304.78;4941314;28;20134;-78
2021/01/08 03:27:41;;;;;;;6.78;3.20;;;;;;;2.75;99.53;101324.41;4942648;28;20071;-78
2021/01/08 03:30:07;;;;;;;6.38;3.38;;;;;;;2.27;98.97;101244.66;4944644;28;20125;-78
2021/01/08 03:32:33;;;;;;;4.00;3.28;;;;;;;2.74;98.98;101325.34;4932775;28;20027;-78
2021/01/08 03:34:58;;;;;;;5.85;3.50;;;;;;;2.72;99.79;101331.63;4943809;28;20560;-78
2021/01/08 03:37:24;;;;;;;6.93;3.70;;;;;;;2.72;99.66;101321.09;4936093;29;20031;-78
2021/01/08 03:39:49;;;;;;;4.47;3.25;;;;;;;2.73;99.72;101323.66;4952706;28;20545;-78
2021/01/08 03:42:15;;;;;;;5.35;3.25;;;;;;;2.76;99.33;101319.97;4947717;28;20118;-78
2021/01/08 03:44:40;;;;;;;4.93;2.63;;;;;;;2.78;99.49;101319.91;4944515;29;20326;-78
2021/01/08 03:47:06;;;;;;;4.45;3.20;;;;;;;2.72;99.36;101306.16;4942418;28;20106;-78
2021/01/08 03:49:37;;;;;;;4.95;3.10;;;;;;;2.77;99.39;101324.31;4927079;29;20119;-78
2021/01/08 03:52:06;;;;;;;4.30;3.13;;;;;;;2.09;99.20;101215.84;4944939;28;20038;-78
2021/01/08 03:54:31;;;;;;;;;;;;;;;2.75;99.28;101320.91;4945002;28;20393;-78
2021/01/08 03:56:57;;;;;;;3.95;3.42;;;;;;;2.74;99.34;101325.34;4938009;28;19914;-78
2021/01/08 03:59:22;;;;;;;6.50;3.35;;;;;;;2.74;99.53;101319.22;4940398;28;20118;-78
2021/01/08 04:01:48;;;;;;;5.25;3.40;;;;;;;2.55;99.24;101286.06;4942250;28;20118;-78
2021/01/08 04:04:13;;;;;;;5.93;4.10;;;;;;;2.46;99.63;101270.78;4906677;29;20039;-78
2021/01/08 04:06:39;;;;;;;5.55;4.20;;;;;;;2.59;99.67;101294.63;4952261;28;20086;-78
2021/01/08 04:09:04;;;;;;;6.07;4.15;;;;;;;2.55;99.82;101290.47;4943042;28;20134;-74
2021/01/08 04:11:30;;;;;;;6.68;4.53;;;;;;;2.52;99.62;101288.88;4925671;28;20075;-77
2021/01/08 04:13:55;;;;;;;7.72;3.95;;;;;;;2.72;99.94;101316.69;4941631;28;20130;-78
2021/01/08 04:16:21;;;;;;;10.98;4.90;;;;;;;2.71;99.96;101322.91;4966926;28;20113;-78
2021/01/08 04:18:46;;;;;;;7.93;4.75;;;;;;;2.75;99.67;101324.41;4945644;28;20605;-77
2021/01/08 04:21:12;;;;;;;8.43;4.97;;;;;;;2.73;100.00;101323.66;4935922;28;22195;-74
2021/01/08 04:23:39;;;;;;;8.75;5.00;;;;;;;2.74;100.00;101328.00;4946368;28;20110;-78
2021/01/08 04:26:06;;;;;;;6.35;5.07;;;;;;;2.75;100.00;101321.78;4934704;29;20093;-78
2021/01/08 04:28:32;;;;;;;8.65;5.50;;;;;;;2.77;100.00;101323.47;4930513;29;20035;-78
2021/01/08 04:30:57;;;;;;;7.50;4.80;;;;;;;2.75;100.00;101320.91;4960899;28;20407;-77
2021/01/08 04:33:22;;;;;;;7.95;4.80;;;;;;;2.76;100.00;101330.53;4950199;28;20147;-77
2021/01/08 04:35:48;;;;;;;6.45;4.88;;;;;;;2.59;100.00;101303.38;4937475;28;20130;-74
2021/01/08 04:38:13;;;;;;;7.65;4.70;;;;;;;2.75;100.00;101324.41;4945976;28;20126;-77
2021/01/08 04:40:39;;;;;;;10.00;4.95;;;;;;;2.54;100.00;101301.94;4939488;28;20114;-77
2021/01/08 04:43:05;;;;;;;8.10;4.75;;;;;;;2.72;100.00;101326.38;4946101;28;20118;-77
2021/01/08 04:45:30;;;;;;;9.18;4.78;;;;;;;2.71;100.00;101328.16;4950084;28;20046;-74
2021/01/08 04:47:56;;;;;;;7.68;4.70;;;;;;;2.69;100.00;101332.66;4949196;28;20111;-78
2021/01/08 04:50:21;;;;;;;10.38;5.03;;;;;;;2.64;100.00;101325.97;4931909;29;20075;-78
2021/01/08 04:52:47;;;;;;;10.23;4.95;;;;;;;2.69;100.00;101339.75;4954605;28;20035;-74
2021/01/08 04:55:13;;;;;;;10.48;5.07;;;;;;;2.68;100.00;101336.25;4930175;29;20127;-79
2021/01/08 04:57:39;;;;;;;7.88;4.65;;;;;;;2.58;100.00;101328.03;4942752;28;20675;-77
2021/01/08 05:00:05;;;;;;;7.90;5.22;;;;;;;2.67;100.00;101334.53;4931891;29;20197;-77
2021/01/08 05:02:30;;;;;;;9.00;4.50;;;;;;;2.68;100.00;101336.25;4948905;28;20562;-77
2021/01/08 05:04:56;;;;;;;7.57;4.63;;;;;;;2.59;100.00;101324.44;4939385;28;20131;-77
2021/01/08 05:07:21;;;;;;;7.93;4.60;;;;;;;2.66;100.00;101335.47;4947073;29;20118;-77
2021/01/08 05:09:47;;;;;;;8.30;4.30;;;;;;;2.47;100.00;101301.44;4942022;28;20066;-77
2021/01/08 05:12:12;;;;;;;9.65;4.15;;;;;;;2.64;100.00;101334.75;4954447;28;20167;-78
2021/01/08 05:14:38;;;;;;;8.45;4.40;;;;;;;2.64;100.00;101347.06;4945334;28;20438;-78
2021/01/08 05:17:03;;;;;;;9.23;4.47;;;;;;;2.63;100.00;101346.22;4948029;28;20126;-77
2021/01/08 05:19:29;;;;;;;5.03;3.95;;;;;;;2.65;100.00;101348.75;4912065;29;21642;-78
2021/01/08 05:21:54;;;;;;;7.20;4.32;;;;;;;2.62;100.00;101341.88;4957172;28;20133;-77
2021/01/08 05:24:23;;;;;;;8.15;4.15;;;;;;;2.63;100.00;101350.63;4966028;28;20118;-78
2021/01/08 05:26:50;;;;;;;7.40;4.50;;;;;;;2.59;100.00;101350.81;4950118;28;20556;-78
2021/01/08 05:29:15;;;;;;;6.32;4.03;;;;;;;2.58;100.00;101346.47;4945143;28;20114;-77
2021/01/08 05:31:41;;;;;;;8.32;4.18;;;;;;;2.56;100.00;101352.78;4951224;28;20205;-77
2021/01/08 05:34:06;;;;;;;6.70;4.10;;;;;;;2.54;100.00;101352.00;4945317;28;20027;-78
2021/01/08 05:36:32;;;;;;;7.28;4.20;;;;;;;2.50;100.00;101353.13;4944966;29;20094;-78
2021/01/08 05:38:58;;;;;;;8.57;4.35;;;;;;;2.34;100.00;101345.25;4942967;28;20102;-75
2021/01/08 05:41:24;;;;;;;9.27;4.68;;;;;;;2.45;100.00;101363.91;4929154;28;20046;-77
2021/01/08 05:43:50;;;;;;;7.70;4.05;;;;;;;2.44;100.00;101368.34;4928436;29;20114;-78
2021/01/08 05:46:17;;;;;;;8.15;4.30;;;;;;;2.44;100.00;101373.63;4945358;28;20150;-77
2021/01/08 05:48:51;;;;;;;8.20;4.25;;;;;;;2.44;100.00;101365.72;4940160;28;20572;-78
2021/01/08 05:51:18;;;;;;;9.50;4.75;;;;;;;2.44;100.00;101370.97;4933833;29;20039;-74
2021/01/08 05:53:51;;;;;;;8.52;4.15;;;;;;;2.24;100.00;101331.78;4941606;28;20046;-74
2021/01/08 05:56:21;;;;;;;8.23;4.22;;;;;;;2.18;100.00;101329.47;4930099;29;20083;-78
2021/01/08 05:58:46;;;;;;;5.90;4.07;;;;;;;2.35;100.00;101357.47;4949390;28;20250;-78
2021/01/08 06:01:12;;;;;;;6.20;4.20;;;;;;;2.11;100.00;101313.16;4920025;29;20047;-76
2021/01/08 06:03:38;;;;;;;7.68;4.68;;;;;;;2.47;100.00;101374.38;4937811;28;20035;-77
2021/01/08 06:06:04;;;;;;;7.63;3.95;;;;;;;2.47;100.00;101372.59;4929072;29;20055;-76
2021/01/08 06:08:31;;;;;;;8.05;4.10;;;;;;;2.48;100.00;101382.19;4942165;28;20332;-77
2021/01/08 06:10:59;;;;;;;9.38;4.55;;;;;;;2.42;100.00;101364.94;4942690;28;20034;-77
2021/01/08 06:13:32;;;;;;;8.35;4.60;;;;;;;2.44;100.00;101375.41;4928922;28;20038;-77
2021/01/08 06:15:57;;;;;;;8.02;4.60;;;;;;;2.04;100.00;101296.88;4932486;29;20031;-73
2021/01/08 06:18:25;;;;;;;6.50;4.18;;;;;;;2.56;100.00;101382.63;4926707;29;20043;-76
2021/01/08 06:20:54;;;;;;;7.97;5.10;;;;;;;2.16;100.00;101321.66;4933840;29;20047;-76
2021/01/08 06:23:39;;;;;;;6.75;4.15;;;;;;;2.48;100.00;101378.72;4942837;28;20058;-76
2021/01/08 06:26:06;;;;;;;10.90;4.20;;;;;;;2.48;100.00;101379.56;4949290;28;20111;-78
2021/01/08 06:28:41;;;;;;;7.75;4.57;;;;;;;2.53;100.00;101382.78;4947548;28;20126;-77
2021/01/08 06:31:18;;;;;;;7.65;4.28;;;;;;;2.36;100.00;101357.41;4919094;29;20071;-77
2021/01/08 06:33:52;;;;;;;11.95;5.22;;;;;;;2.59;100.00;101402.66;4949668;28;20031;-77
2021/01/08 06:36:31;;;;;;;11.25;5.65;;;;;;;2.52;100.00;101386.34;4942814;28;20160;-76
2021/01/08 06:39:02;;;;;;;17.23;6.75;;;;;;;2.56;100.00;101389.66;4958994;28;20030;-76
2021/01/08 06:41:28;;;;;;;11.45;5.28;;;;;;;2.61;100.00;101403.44;4923402;28;20035;-77
2021/01/08 06:44:03;;;;;;;9.65;5.55;;;;;;;2.62;100.00;101406.91;4929264;28;20624;-76
2021/01/08 06:46:34;;;;;;;12.70;5.45;;;;;;;2.62;100.00;101404.25;4947205;28;20035;-76
2021/01/08 06:49:07;;;;;;;7.88;4.70;;;;;;;2.63;100.00;101404.19;4948079;28;20035;-76
2021/01/08 06:51:34;;;;;;;8.00;4.72;;;;;;;2.55;100.00;101399.38;4932711;28;20035;-76
2021/01/08 06:54:01;;;;;;;8.27;5.20;;;;;;;2.56;100.00;101402.84;4937147;29;20042;-76
2021/01/08 06:56:28;;;;;;;8.13;5.22;;;;;;;2.66;100.00;101425.09;4929424;29;20039;-77
2021/01/08 06:58:56;;;;;;;8.18;4.28;;;;;;;2.64;99.90;101419.06;4942577;28;20133;-76
2021/01/08 07:01:41;;;;;;;7.53;4.63;;;;;;;2.51;99.80;101402.25;4955576;28;20038;-77
2021/01/08 07:04:09;;;;;;;11.35;6.55;;;;;;;2.59;99.98;101429.00;4954749;28;20566;-76
2021/01/08 07:06:35;;;;;;;8.18;5.03;;;;;;;2.55;100.00;101433.63;4926435;28;20235;-75
2021/01/08 07:09:03;;;;;;;11.27;6.70;;;;;;;2.42;99.85;101401.00;4944640;28;20043;-76
2021/01/08 07:11:28;;;;;;;11.90;6.57;;;;;;;2.57;100.00;101430.88;4929169;28;20501;-77
2021/01/08 07:14:14;;;;;;;11.88;7.32;;;;;;;2.56;100.00;101432.69;4938857;28;20121;-77
2021/01/08 07:16:44;;;;;;;12.35;7.30;;;;;;;2.54;100.00;101444.22;4936693;28;20361;-76
2021/01/08 07:19:10;;;;;;;12.27;6.25;;;;;;;2.55;100.00;101446.78;4945661;28;20055;-77
2021/01/08 07:21:41;;;;;;;10.52;5.88;;;;;;;2.37;100.00;101424.09;4939323;28;20401;-78
2021/01/08 07:24:09;;;;;;;11.23;5.68;;;;;;;2.53;100.00;101453.06;4948058;28;20043;-76
2021/01/08 07:26:34;;;;;;;15.32;7.82;;;;;;;2.52;100.00;101454.88;4951810;29;20047;-77
2021/01/08 07:29:00;;;;;;;11.23;5.90;;;;;;;2.52;100.00;101454.88;4935551;29;20575;-73
2021/01/08 07:31:30;;;;;;;22.83;12.23;;;;;;;2.41;100.00;101442.28;4945136;28;20024;-73
2021/01/08 07:33:56;;;;;;;13.05;8.30;;;;;;;2.55;100.00;101459.09;4962025;28;20474;-76
2021/01/08 07:36:26;;;;;;;15.02;8.55;;;;;;;2.39;100.00;101436.25;4951633;28;20035;-78
2021/01/08 07:38:52;;;;;;;13.88;8.93;;;;;;;2.56;100.00;101463.44;4934538;28;20557;-76
2021/01/08 07:41:36;;;;;;;10.75;8.10;;;;;;;2.57;100.00;101467.78;4948718;28;20027;-78
2021/01/08 07:44:03;;;;;;;15.25;7.95;;;;;;;2.32;100.00;101432.25;4945440;28;20047;-76
2021/01/08 07:46:33;;;;;;;12.68;7.65;;;;;;;2.55;100.00;101475.78;4931235;29;20122;-79
2021/01/08 07:49:02;;;;;;;15.57;8.20;;;;;;;2.42;100.00;101470.31;4932952;28;20066;-77
2021/01/08 07:51:46;;;;;;;13.55;8.00;;;;;;;2.37;100.00;101458.34;4938716;28;20677;-78
2021/01/08 07:54:12;;;;;;;11.32;7.80;;;;;;;2.50;100.00;101482.25;4945276;28;20475;-78
2021/01/08 07:57:04;;;;;;;13.73;8.02;;;;;;;2.49;100.00;101491.91;4952921;28;20380;-72
2021/01/08 07:59:29;;;;;;;11.52;8.05;;;;;;;2.46;100.00;101499.97;4924216;28;20034;-78
2021/01/08 08:01:55;;;;;;;13.43;8.38;;;;;;;2.18;100.00;101446.16;4930285;28;20039;-78
2021/01/08 08:04:22;;;;;;;11.40;7.78;;;;;;;2.49;100.00;101504.25;4923118;28;20157;-79
2021/01/08 08:06:47;;;;;;;12.68;8.30;;;;;;;2.27;100.00;101471.16;4944161;28;20034;-77
2021/01/08 08:09:13;;;;;;;10.27;7.38;;;;;;;2.37;100.00;101484.69;4946871;28;20524;-77
2021/01/08 08:11:39;;;;;;;12.20;8.48;;;;;;;2.51;100.00;101516.41;4945551;28;20075;-78
2021/01/08 08:14:05;;;;;;;14.18;8.63;;;;;;;2.29;100.00;101491.25;4951046;28;20031;-74
2021/01/08 08:16:38;;;;;;;13.82;8.55;;;;;;;2.31;100.00;101499.03;4950255;28;20046;-74
2021/01/08 08:19:07;;;;;;;12.45;8.13;;;;;;;2.52;100.00;101530.41;4927001;28;20043;-74
2021/01/08 08:21:33;;;;;;;12.63;8.25;;;;;;;2.48;100.00;101534.16;4940383;28;20047;-73
2021/01/08 08:24:02;;;;;;;18.38;8.48;;;;;;;2.30;100.00;101513.16;4941145;28;20031;-74
2021/01/08 08:26:29;;;;;;;14.40;7.63;;;;;;;2.35;100.00;101523.44;4920897;28;20035;-74
2021/01/08 08:29:14;;;;;;;11.05;7.45;;;;;;;2.50;100.00;101545.47;4922896;28;20046;-74
2021/01/08 08:31:46;;;;;;;13.10;7.45;;;;;;;2.49;100.00;101543.78;4943152;28;20043;-74
2021/01/08 08:34:13;;;;;;;15.13;7.85;;;;;;;2.34;100.00;101519.97;4934601;28;20039;-74
2021/01/08 08:36:39;;;;;;;10.35;7.20;;;;;;;2.53;100.00;101563.72;4923192;28;20027;-74
2021/01/08 08:39:13;;;;;;;11.55;7.07;;;;;;;2.53;100.00;101559.31;4940846;28;20303;-74
2021/01/08 08:41:40;;;;;;;13.88;7.15;;;;;;;2.31;100.00;101521.91;4942287;28;20027;-74
2021/01/08 08:44:09;;;;;;;15.90;9.35;;;;;;;2.34;100.00;101524.34;4935869;28;20259;-74
2021/01/08 08:46:54;;;;;;;15.48;8.48;;;;;;;2.36;100.00;101527.75;4937761;28;20050;-74
2021/01/08 08:49:34;;;;;;;14.73;8.82;;;;;;;2.62;100.00;101571.16;4937844;28;20051;-74
2021/01/08 08:52:00;;;;;;;17.77;9.63;;;;;;;2.62;100.00;101575.56;4933262;28;20050;-73
2021/01/08 08:54:26;;;;;;;14.93;7.72;;;;;;;2.58;100.00;101562.53;4920574;28;20035;-73
2021/01/08 08:56:55;;;;;;;9.90;7.65;;;;;;;2.68;100.00;101569.97;4934382;28;20505;-74
2021/01/08 08:59:40;;;;;;;13.88;7.28;;;;;;;2.67;100.00;101582.28;4939821;28;20042;-74
2021/01/08 09:02:06;;;;;;;12.35;6.75;;;;;;;2.73;100.00;101578.47;4956018;28;20122;-75
2021/01/08 09:04:32;;;;;;;12.35;7.28;;;;;;;2.49;100.00;101541.13;4935373;28;20043;-74
2021/01/08 09:07:01;;;;;;;12.95;7.13;;;;;;;2.84;100.00;101580.50;4925005;28;20081;-73
2021/01/08 09:09:28;;;;;;;14.63;6.97;;;;;;;2.79;100.00;101566.72;4921545;28;20051;-74
2021/01/08 09:12:31;;;;;;;11.95;6.40;;;;;;;2.96;100.00;101584.25;4934495;28;20078;-74
2021/01/08 09:15:04;;;;;;;13.05;6.75;;;;;;;2.74;99.84;101545.91;4937973;28;20039;-74
2021/01/08 09:17:34;;;;;;;12.90;7.25;;;;;;;2.88;99.26;101567.06;4949098;28;20039;-74
2021/01/08 09:20:00;;;;;;;12.38;7.43;;;;;;;3.14;99.61;101592.94;4919860;28;20034;-74
2021/01/08 09:22:27;;;;;;;10.93;6.60;;;;;;;2.79;98.17;101541.22;4922331;28;20421;-74
2021/01/08 09:24:56;;;;;;;11.95;6.60;;;;;;;3.20;97.57;101600.47;4940433;28;20027;-74
2021/01/08 09:27:22;;;;;;;10.02;6.65;;;;;;;3.27;97.63;101600.97;4934695;28;20031;-74
2021/01/08 09:29:47;;;;;;;12.75;6.30;;;;;;;3.08;97.36;101572.16;4922515;29;20042;-74
2021/01/08 09:32:29;;;;;;;11.85;6.05;;;;;;;3.40;97.05;101604.63;4935944;28;20162;-75
2021/01/08 09:34:58;;;;;;;12.45;5.20;;;;;;;3.46;96.66;101608.72;4922180;29;20576;-74
2021/01/08 09:37:24;;;;;;;8.48;5.40;;;;;;;3.48;95.80;101606.81;4938462;28;20062;-73
2021/01/08 09:39:49;;;;;;;9.35;5.07;;;;;;;3.44;95.37;101611.44;4934817;28;20122;-74
2021/01/08 09:42:15;;;;;;;8.90;4.88;;;;;;;3.37;95.51;101605.66;4935646;28;20125;-74
2021/01/08 09:44:41;;;;;;;9.80;5.47;;;;;;;3.42;95.10;101605.38;4920706;28;20123;-74
2021/01/08 09:47:13;;;;;;;8.00;5.28;;;;;;;3.21;95.47;101581.06;4939384;28;20126;-74
2021/01/08 09:49:48;;;;;;;8.88;5.25;;;;;;;3.44;96.00;101629.06;4946041;28;20490;-74
2021/01/08 09:52:14;;;;;;;7.15;4.25;;;;;;;3.44;95.69;101629.91;4949380;28;20050;-74
2021/01/08 09:54:40;;;;;;;7.40;4.47;;;;;;;3.22;95.81;101580.16;4938784;28;20031;-74
2021/01/08 09:57:05;;;;;;;5.70;4.30;;;;;;;3.58;95.29;101628.28;4939582;28;20023;-74
2021/01/08 09:59:31;;;;;;;7.25;4.47;;;;;;;3.59;95.77;101630.84;4942246;28;20114;-74
2021/01/08 10:04:29;;;;;;;9.38;3.67;;;;;;;3.67;94.62;101625.94;4947344;28;20047;-74
2021/01/08 10:06:56;;;;;;;5.45;3.50;;;;;;;3.63;94.64;101619.13;4937875;28;20047;-74
2021/01/08 10:09:21;;;;;;;4.97;3.42;;;;;;;3.73;94.28;101634.47;4943709;28;20050;-74
2021/01/08 10:11:57;;;;;;;4.40;2.85;;;;;;;3.72;93.83;101640.69;4922839;28;20468;-74
2021/01/08 10:14:22;;;;;;;6.18;3.03;;;;;;;3.66;93.53;101641.91;4938778;28;20166;-73
2021/01/08 10:16:48;;;;;;;5.25;3.30;;;;;;;3.60;93.29;101640.44;4948914;28;20113;-76
2021/01/08 10:19:13;;;;;;;5.80;3.08;;;;;;;3.56;93.95;101645.97;4961221;28;20533;-73
2021/01/08 10:21:42;;;;;;;3.85;3.10;;;;;;;3.27;93.62;101601.84;4947133;28;20546;-78
2021/01/08 10:24:08;;;;;;;3.13;2.78;;;;;;;3.49;94.60;101641.06;4948069;28;20069;-78
2021/01/08 10:26:33;;;;;;;5.43;2.97;;;;;;;3.57;93.99;101645.91;4930592;29;20509;-77
2021/01/08 10:28:59;;;;;;;4.53;3.00;;;;;;;3.46;93.99;101611.38;4946051;28;20114;-87
2021/01/08 10:31:24;;;;;;;4.88;2.75;;;;;;;3.49;93.95;101619.94;4948610;28;20114;-90
2021/01/08 10:33:51;;;;;;;6.43;3.03;;;;;;;3.37;94.11;101587.19;4947968;28;20154;-77
2021/01/08 10:36:16;;;;;;;5.25;2.75;;;;;;;3.84;93.27;101653.19;4945450;28;20082;-78
2021/01/08 10:38:42;;;;;;;2.30;2.10;;;;;;;3.80;93.17;101638.44;4958636;28;20122;-78
2021/01/08 10:41:08;;;;;;;7.15;2.55;;;;;;;3.79;93.06;101615.63;4940599;28;20031;-78
2021/01/08 10:43:34;;;;;;;3.03;1.85;;;;;;;3.67;92.72;101589.00;4937929;28;20571;-78
2021/01/08 10:46:02;;;;;;;2.88;1.65;;;;;;;4.20;91.23;101646.66;4931149;29;20509;-78
2021/01/08 10:48:28;;;;;;;2.20;1.67;;;;;;;4.20;90.51;101653.75;4938170;28;20055;-78
2021/01/08 10:50:53;;;;;;;2.22;1.65;;;;;;;4.13;90.04;101653.25;4927566;28;20043;-78
2021/01/08 10:53:19;;;;;;;1.75;1.63;;;;;;;4.08;89.77;101658.78;4939822;28;20059;-78
2021/01/08 10:55:46;;;;;;;1.92;1.73;;;;;;;4.01;89.38;101656.59;4937590;28;20554;-88
2021/01/08 10:58:12;;;;;;;2.92;1.50;;;;;;;3.80;89.69;101612.88;4923701;28;20026;-78
2021/01/08 11:00:37;;;;;;;1.58;1.48;;;;;;;1.97;90.16;101343.75;4941518;28;20110;-79
2021/01/08 11:03:03;;;;;;;3.35;1.70;;;;;;;4.05;89.78;101647.56;4928423;28;20161;-87
2021/01/08 11:05:30;;;;;;;3.83;1.50;;;;;;;4.18;89.48;101661.75;4940775;28;20114;-88
2021/01/08 11:07:55;;;;;;;1.58;1.48;;;;;;;4.24;89.69;101650.81;4937797;28;20039;-87
2021/01/08 11:10:21;;;;;;;3.42;2.53;;;;;;;4.29;88.65;101664.59;4926199;29;20261;-79
2021/01/08 11:12:46;;;;;;;4.00;3.05;;;;;;;4.17;88.25;101640.72;4943551;28;20078;-77
2021/01/08 11:15:12;;;;;;;3.00;1.90;;;;;;;4.24;89.08;101658.75;4946903;28;20157;-80
2021/01/08 11:17:38;;;;;;;2.75;2.15;;;;;;;4.26;88.92;101669.22;4940541;28;20078;-81
2021/01/08 11:20:04;;;;;;;2.50;2.20;;;;;;;4.19;88.73;101668.72;4943407;28;20089;-82
2021/01/08 11:22:29;;;;;;;3.75;2.22;;;;;;;4.13;89.88;101664.66;4942989;28;20090;-84
2021/01/08 11:24:55;;;;;;;3.10;2.80;;;;;;;3.80;89.63;101633.16;4945313;28;20126;-90
2021/01/08 11:27:20;;;;;;;3.47;2.47;;;;;;;3.96;89.30;101657.72;4943875;28;20087;-81
2021/01/08 11:29:46;;;;;;;2.13;1.92;;;;;;;4.10;88.64;101674.56;4961452;28;20525;-83
2021/01/08 11:32:12;;;;;;;3.58;2.45;;;;;;;3.80;89.00;101622.59;4929137;28;20534;-80
2021/01/08 11:34:40;;;;;;;5.05;2.75;;;;;;;3.81;89.25;101648.06;4948047;28;20038;-83